sensor_id;sensor_type;location;lat;lon;timestamp;P1;durP1;ratioP1;P2;durP2;ratioP2
73593;SDS011;64760;53.404;23.498;2023-05-13T00:01:38;24.25;;;12.80;;
73593;SDS011;64760;53.404;23.498;2023-05-13T00:04:06;20.88;;;9.63;;
73593;SDS011;64760;53.404;23.498;2023-05-13T00:06:34;16.23;;;8.30;;
73593;SDS011;64760;53.404;23.498;2023-05-13T00:09:01;17.60;;;9.57;;
73593;SDS011;64760;53.404;23.498;2023-05-13T00:11:28;22.50;;;8.38;;
73593;SDS011;64760;53.404;23.498;2023-05-13T00:13:54;13.10;;;8.07;;
73593;SDS011;64760;53.404;23.498;2023-05-13T00:16:22;13.52;;;7.32;;
73593;SDS011;64760;53.404;23.498;2023-05-13T00:18:50;18.45;;;8.50;;
73593;SDS011;64760;53.404;23.498;2023-05-13T00:21:16;17.90;;;8.80;;
73593;SDS011;64760;53.404;23.498;2023-05-13T00:23:43;19.15;;;9.30;;
73593;SDS011;64760;53.404;23.498;2023-05-13T00:26:09;19.17;;;10.10;;
73593;SDS011;64760;53.404;23.498;2023-05-13T00:28:36;19.02;;;10.50;;
73593;SDS011;64760;53.404;23.498;2023-05-13T00:31:02;20.02;;;9.98;;
73593;SDS011;64760;53.404;23.498;2023-05-13T00:33:29;17.48;;;9.25;;
73593;SDS011;64760;53.404;23.498;2023-05-13T00:35:55;26.15;;;11.63;;
73593;SDS011;64760;53.404;23.498;2023-05-13T00:38:22;26.40;;;12.80;;
73593;SDS011;64760;53.404;23.498;2023-05-13T00:40:48;19.30;;;9.77;;
73593;SDS011;64760;53.404;23.498;2023-05-13T00:43:15;17.85;;;10.98;;
73593;SDS011;64760;53.404;23.498;2023-05-13T00:45:42;16.17;;;9.85;;
73593;SDS011;64760;53.404;23.498;2023-05-13T00:48:08;19.15;;;10.35;;
73593;SDS011;64760;53.404;23.498;2023-05-13T00:50:37;19.67;;;9.65;;
73593;SDS011;64760;53.404;23.498;2023-05-13T00:53:04;23.00;;;10.65;;
73593;SDS011;64760;53.404;23.498;2023-05-13T00:55:30;16.38;;;8.07;;
73593;SDS011;64760;53.404;23.498;2023-05-13T00:57:57;18.55;;;9.30;;
73593;SDS011;64760;53.404;23.498;2023-05-13T01:00:23;17.90;;;9.35;;
73593;SDS011;64760;53.404;23.498;2023-05-13T01:06:15;16.35;;;9.20;;
73593;SDS011;64760;53.404;23.498;2023-05-13T01:08:57;14.70;;;8.05;;
73593;SDS011;64760;53.404;23.498;2023-05-13T01:11:28;10.93;;;6.20;;
73593;SDS011;64760;53.404;23.498;2023-05-13T01:14:12;13.50;;;7.22;;
73593;SDS011;64760;53.404;23.498;2023-05-13T01:19:48;9.90;;;6.15;;
73593;SDS011;64760;53.404;23.498;2023-05-13T01:22:19;14.80;;;7.05;;
73593;SDS011;64760;53.404;23.498;2023-05-13T01:24:46;13.43;;;7.15;;
73593;SDS011;64760;53.404;23.498;2023-05-13T01:27:13;12.13;;;6.30;;
73593;SDS011;64760;53.404;23.498;2023-05-13T01:29:39;9.40;;;6.57;;
73593;SDS011;64760;53.404;23.498;2023-05-13T01:32:06;11.25;;;6.40;;
73593;SDS011;64760;53.404;23.498;2023-05-13T01:34:35;11.60;;;6.38;;
73593;SDS011;64760;53.404;23.498;2023-05-13T01:37:04;13.43;;;6.78;;
73593;SDS011;64760;53.404;23.498;2023-05-13T01:39:32;12.95;;;7.05;;
73593;SDS011;64760;53.404;23.498;2023-05-13T01:42:04;14.60;;;7.50;;
73593;SDS011;64760;53.404;23.498;2023-05-13T01:44:31;13.27;;;6.97;;
73593;SDS011;64760;53.404;23.498;2023-05-13T01:46:59;15.82;;;8.00;;
73593;SDS011;64760;53.404;23.498;2023-05-13T01:49:25;15.23;;;8.38;;
73593;SDS011;64760;53.404;23.498;2023-05-13T01:51:51;18.85;;;10.00;;
73593;SDS011;64760;53.404;23.498;2023-05-13T01:54:18;17.98;;;10.05;;
73593;SDS011;64760;53.404;23.498;2023-05-13T01:56:49;17.80;;;10.05;;
73593;SDS011;64760;53.404;23.498;2023-05-13T01:59:17;19.73;;;10.20;;
73593;SDS011;64760;53.404;23.498;2023-05-13T02:01:43;18.52;;;9.38;;
73593;SDS011;64760;53.404;23.498;2023-05-13T02:08:05;16.10;;;10.25;;
73593;SDS011;64760;53.404;23.498;2023-05-13T02:10:32;17.65;;;9.65;;
73593;SDS011;64760;53.404;23.498;2023-05-13T02:13:00;21.02;;;11.25;;
73593;SDS011;64760;53.404;23.498;2023-05-13T02:15:26;22.45;;;10.30;;
73593;SDS011;64760;53.404;23.498;2023-05-13T02:17:52;21.13;;;9.63;;
73593;SDS011;64760;53.404;23.498;2023-05-13T02:20:19;16.73;;;9.57;;
73593;SDS011;64760;53.404;23.498;2023-05-13T02:22:45;19.33;;;10.05;;
73593;SDS011;64760;53.404;23.498;2023-05-13T02:25:12;18.80;;;8.88;;
73593;SDS011;64760;53.404;23.498;2023-05-13T02:27:38;20.55;;;10.05;;
73593;SDS011;64760;53.404;23.498;2023-05-13T02:30:05;17.13;;;9.93;;
73593;SDS011;64760;53.404;23.498;2023-05-13T02:32:32;17.38;;;9.00;;
73593;SDS011;64760;53.404;23.498;2023-05-13T02:34:58;15.43;;;9.00;;
73593;SDS011;64760;53.404;23.498;2023-05-13T02:37:24;18.00;;;9.32;;
73593;SDS011;64760;53.404;23.498;2023-05-13T02:39:59;17.98;;;10.07;;
73593;SDS011;64760;53.404;23.498;2023-05-13T02:42:25;18.38;;;9.15;;
73593;SDS011;64760;53.404;23.498;2023-05-13T02:44:52;16.80;;;9.68;;
73593;SDS011;64760;53.404;23.498;2023-05-13T02:47:19;21.52;;;9.52;;
73593;SDS011;64760;53.404;23.498;2023-05-13T02:49:45;10.98;;;7.25;;
73593;SDS011;64760;53.404;23.498;2023-05-13T02:52:12;14.32;;;7.60;;
73593;SDS011;64760;53.404;23.498;2023-05-13T02:54:38;15.02;;;7.72;;
73593;SDS011;64760;53.404;23.498;2023-05-13T02:57:04;13.07;;;8.60;;
73593;SDS011;64760;53.404;23.498;2023-05-13T02:59:31;17.17;;;9.25;;
73593;SDS011;64760;53.404;23.498;2023-05-13T03:01:57;16.33;;;9.40;;
73593;SDS011;64760;53.404;23.498;2023-05-13T03:04:24;15.27;;;8.80;;
73593;SDS011;64760;53.404;23.498;2023-05-13T03:06:50;20.65;;;9.70;;
73593;SDS011;64760;53.404;23.498;2023-05-13T03:09:17;17.00;;;10.15;;
73593;SDS011;64760;53.404;23.498;2023-05-13T03:11:44;15.85;;;9.40;;
73593;SDS011;64760;53.404;23.498;2023-05-13T03:14:10;14.82;;;9.43;;
73593;SDS011;64760;53.404;23.498;2023-05-13T03:16:37;16.27;;;10.45;;
73593;SDS011;64760;53.404;23.498;2023-05-13T03:19:04;21.15;;;11.40;;
73593;SDS011;64760;53.404;23.498;2023-05-13T03:21:30;24.30;;;12.15;;
73593;SDS011;64760;53.404;23.498;2023-05-13T03:23:57;21.65;;;12.23;;
73593;SDS011;64760;53.404;23.498;2023-05-13T03:26:24;36.78;;;17.20;;
73593;SDS011;64760;53.404;23.498;2023-05-13T03:28:51;28.02;;;16.23;;
73593;SDS011;64760;53.404;23.498;2023-05-13T03:31:17;25.40;;;12.23;;
73593;SDS011;64760;53.404;23.498;2023-05-13T03:33:43;21.50;;;12.05;;
73593;SDS011;64760;53.404;23.498;2023-05-13T03:36:10;21.63;;;11.65;;
73593;SDS011;64760;53.404;23.498;2023-05-13T03:38:37;29.83;;;14.25;;
73593;SDS011;64760;53.404;23.498;2023-05-13T03:41:03;33.42;;;15.23;;
73593;SDS011;64760;53.404;23.498;2023-05-13T03:43:30;31.15;;;13.85;;
73593;SDS011;64760;53.404;23.498;2023-05-13T03:45:59;23.45;;;12.88;;
73593;SDS011;64760;53.404;23.498;2023-05-13T03:48:27;18.10;;;10.80;;
73593;SDS011;64760;53.404;23.498;2023-05-13T03:50:55;15.65;;;8.93;;
73593;SDS011;64760;53.404;23.498;2023-05-13T03:53:22;13.98;;;9.07;;
73593;SDS011;64760;53.404;23.498;2023-05-13T03:55:48;14.85;;;8.27;;
73593;SDS011;64760;53.404;23.498;2023-05-13T03:58:15;16.38;;;9.40;;
73593;SDS011;64760;53.404;23.498;2023-05-13T04:00:42;18.40;;;8.90;;
73593;SDS011;64760;53.404;23.498;2023-05-13T04:03:12;18.13;;;8.27;;
73593;SDS011;64760;53.404;23.498;2023-05-13T04:05:38;15.90;;;8.85;;
73593;SDS011;64760;53.404;23.498;2023-05-13T04:08:05;15.40;;;8.73;;
73593;SDS011;64760;53.404;23.498;2023-05-13T04:10:31;15.15;;;7.70;;
73593;SDS011;64760;53.404;23.498;2023-05-13T04:12:58;17.77;;;10.15;;
73593;SDS011;64760;53.404;23.498;2023-05-13T04:15:24;19.95;;;9.73;;
73593;SDS011;64760;53.404;23.498;2023-05-13T04:17:51;15.98;;;10.05;;
73593;SDS011;64760;53.404;23.498;2023-05-13T04:20:18;20.48;;;11.18;;
73593;SDS011;64760;53.404;23.498;2023-05-13T04:22:45;22.33;;;12.38;;
73593;SDS011;64760;53.404;23.498;2023-05-13T04:25:13;19.35;;;10.02;;
73593;SDS011;64760;53.404;23.498;2023-05-13T04:27:40;19.33;;;10.38;;
73593;SDS011;64760;53.404;23.498;2023-05-13T04:30:13;18.60;;;10.75;;
73593;SDS011;64760;53.404;23.498;2023-05-13T04:32:42;16.70;;;9.02;;
73593;SDS011;64760;53.404;23.498;2023-05-13T04:35:10;15.18;;;8.98;;
73593;SDS011;64760;53.404;23.498;2023-05-13T04:37:37;13.38;;;8.52;;
73593;SDS011;64760;53.404;23.498;2023-05-13T04:40:05;14.55;;;8.82;;
73593;SDS011;64760;53.404;23.498;2023-05-13T04:42:33;18.55;;;8.15;;
73593;SDS011;64760;53.404;23.498;2023-05-13T04:45:00;13.70;;;8.13;;
73593;SDS011;64760;53.404;23.498;2023-05-13T04:47:28;15.95;;;8.23;;
73593;SDS011;64760;53.404;23.498;2023-05-13T04:49:55;15.07;;;8.52;;
73593;SDS011;64760;53.404;23.498;2023-05-13T04:52:21;11.95;;;7.70;;
73593;SDS011;64760;53.404;23.498;2023-05-13T04:54:48;13.65;;;7.75;;
73593;SDS011;64760;53.404;23.498;2023-05-13T04:57:14;13.98;;;8.13;;
73593;SDS011;64760;53.404;23.498;2023-05-13T05:06:15;14.00;;;7.55;;
73593;SDS011;64760;53.404;23.498;2023-05-13T05:08:42;13.80;;;8.07;;
73593;SDS011;64760;53.404;23.498;2023-05-13T05:11:08;16.10;;;7.93;;
73593;SDS011;64760;53.404;23.498;2023-05-13T05:13:36;15.23;;;7.63;;
73593;SDS011;64760;53.404;23.498;2023-05-13T05:16:03;17.23;;;8.30;;
73593;SDS011;64760;53.404;23.498;2023-05-13T05:20:56;15.05;;;8.43;;
73593;SDS011;64760;53.404;23.498;2023-05-13T05:23:23;18.17;;;9.77;;
73593;SDS011;64760;53.404;23.498;2023-05-13T05:25:50;16.17;;;9.65;;
73593;SDS011;64760;53.404;23.498;2023-05-13T05:28:16;20.90;;;11.00;;
73593;SDS011;64760;53.404;23.498;2023-05-13T05:30:43;19.63;;;10.70;;
73593;SDS011;64760;53.404;23.498;2023-05-13T05:33:16;22.10;;;11.93;;
73593;SDS011;64760;53.404;23.498;2023-05-13T05:35:43;23.20;;;13.38;;
73593;SDS011;64760;53.404;23.498;2023-05-13T05:38:13;20.63;;;10.25;;
73593;SDS011;64760;53.404;23.498;2023-05-13T05:40:41;17.33;;;9.65;;
73593;SDS011;64760;53.404;23.498;2023-05-13T05:43:10;13.32;;;8.10;;
73593;SDS011;64760;53.404;23.498;2023-05-13T05:45:37;11.50;;;6.45;;
73593;SDS011;64760;53.404;23.498;2023-05-13T05:48:06;15.05;;;6.55;;
73593;SDS011;64760;53.404;23.498;2023-05-13T05:50:33;10.25;;;6.68;;
73593;SDS011;64760;53.404;23.498;2023-05-13T05:53:04;11.77;;;5.80;;
73593;SDS011;64760;53.404;23.498;2023-05-13T05:55:33;9.02;;;5.60;;
73593;SDS011;64760;53.404;23.498;2023-05-13T05:58:02;10.18;;;5.30;;
73593;SDS011;64760;53.404;23.498;2023-05-13T06:00:31;7.80;;;5.03;;
73593;SDS011;64760;53.404;23.498;2023-05-13T06:02:58;9.20;;;5.10;;
73593;SDS011;64760;53.404;23.498;2023-05-13T06:05:25;6.68;;;4.60;;
73593;SDS011;64760;53.404;23.498;2023-05-13T06:07:51;8.23;;;5.15;;
73593;SDS011;64760;53.404;23.498;2023-05-13T06:10:18;9.13;;;5.38;;
73593;SDS011;64760;53.404;23.498;2023-05-13T06:12:45;9.85;;;5.45;;
73593;SDS011;64760;53.404;23.498;2023-05-13T06:15:11;9.75;;;5.15;;
73593;SDS011;64760;53.404;23.498;2023-05-13T06:17:38;8.23;;;5.00;;
73593;SDS011;64760;53.404;23.498;2023-05-13T06:20:06;8.52;;;5.13;;
73593;SDS011;64760;53.404;23.498;2023-05-13T06:22:33;10.27;;;4.88;;
73593;SDS011;64760;53.404;23.498;2023-05-13T06:24:59;8.05;;;4.80;;
73593;SDS011;64760;53.404;23.498;2023-05-13T06:27:26;9.50;;;5.40;;
73593;SDS011;64760;53.404;23.498;2023-05-13T06:29:52;7.38;;;4.78;;
73593;SDS011;64760;53.404;23.498;2023-05-13T06:32:19;7.63;;;4.85;;
73593;SDS011;64760;53.404;23.498;2023-05-13T06:34:45;8.10;;;4.47;;
73593;SDS011;64760;53.404;23.498;2023-05-13T06:37:12;8.88;;;4.82;;
73593;SDS011;64760;53.404;23.498;2023-05-13T06:42:06;7.78;;;4.32;;
73593;SDS011;64760;53.404;23.498;2023-05-13T06:44:38;7.53;;;4.47;;
73593;SDS011;64760;53.404;23.498;2023-05-13T06:47:05;6.28;;;3.90;;
73593;SDS011;64760;53.404;23.498;2023-05-13T06:49:31;6.75;;;4.10;;
73593;SDS011;64760;53.404;23.498;2023-05-13T06:51:59;7.53;;;4.22;;
73593;SDS011;64760;53.404;23.498;2023-05-13T06:54:25;7.43;;;5.15;;
73593;SDS011;64760;53.404;23.498;2023-05-13T06:56:53;6.25;;;4.63;;
73593;SDS011;64760;53.404;23.498;2023-05-13T06:59:19;8.93;;;4.60;;
73593;SDS011;64760;53.404;23.498;2023-05-13T07:01:47;17.73;;;6.10;;
73593;SDS011;64760;53.404;23.498;2023-05-13T07:04:13;8.00;;;4.88;;
73593;SDS011;64760;53.404;23.498;2023-05-13T07:06:40;10.43;;;4.82;;
73593;SDS011;64760;53.404;23.498;2023-05-13T07:09:06;9.27;;;4.63;;
73593;SDS011;64760;53.404;23.498;2023-05-13T07:11:35;7.70;;;4.70;;
73593;SDS011;64760;53.404;23.498;2023-05-13T07:14:01;9.27;;;5.05;;
73593;SDS011;64760;53.404;23.498;2023-05-13T07:16:28;14.30;;;5.60;;
73593;SDS011;64760;53.404;23.498;2023-05-13T07:18:54;8.63;;;4.03;;
73593;SDS011;64760;53.404;23.498;2023-05-13T07:21:21;10.38;;;4.00;;
73593;SDS011;64760;53.404;23.498;2023-05-13T07:23:47;8.32;;;4.20;;
73593;SDS011;64760;53.404;23.498;2023-05-13T07:26:13;8.80;;;3.85;;
73593;SDS011;64760;53.404;23.498;2023-05-13T07:28:40;7.32;;;4.20;;
73593;SDS011;64760;53.404;23.498;2023-05-13T07:31:06;9.18;;;4.03;;
73593;SDS011;64760;53.404;23.498;2023-05-13T07:33:32;7.57;;;3.78;;
73593;SDS011;64760;53.404;23.498;2023-05-13T07:35:59;12.27;;;3.75;;
73593;SDS011;64760;53.404;23.498;2023-05-13T07:38:25;10.15;;;3.80;;
73593;SDS011;64760;53.404;23.498;2023-05-13T07:40:52;6.28;;;4.20;;
73593;SDS011;64760;53.404;23.498;2023-05-13T07:43:18;14.85;;;4.60;;
73593;SDS011;64760;53.404;23.498;2023-05-13T07:45:51;7.47;;;4.10;;
73593;SDS011;64760;53.404;23.498;2023-05-13T07:48:22;5.45;;;3.60;;
73593;SDS011;64760;53.404;23.498;2023-05-13T07:53:37;7.03;;;3.65;;
73593;SDS011;64760;53.404;23.498;2023-05-13T07:56:04;7.25;;;3.60;;
73593;SDS011;64760;53.404;23.498;2023-05-13T08:00:57;9.57;;;3.60;;
73593;SDS011;64760;53.404;23.498;2023-05-13T08:03:23;8.60;;;3.50;;
73593;SDS011;64760;53.404;23.498;2023-05-13T08:05:50;8.07;;;3.80;;
73593;SDS011;64760;53.404;23.498;2023-05-13T08:08:16;8.15;;;3.47;;
73593;SDS011;64760;53.404;23.498;2023-05-13T08:10:43;6.75;;;3.42;;
73593;SDS011;64760;53.404;23.498;2023-05-13T08:13:09;7.25;;;3.50;;
73593;SDS011;64760;53.404;23.498;2023-05-13T08:15:36;9.13;;;3.75;;
73593;SDS011;64760;53.404;23.498;2023-05-13T08:18:02;7.03;;;3.28;;
73593;SDS011;64760;53.404;23.498;2023-05-13T08:20:29;11.35;;;3.47;;
73593;SDS011;64760;53.404;23.498;2023-05-13T08:22:56;6.25;;;3.35;;
73593;SDS011;64760;53.404;23.498;2023-05-13T08:25:23;7.40;;;3.47;;
73593;SDS011;64760;53.404;23.498;2023-05-13T08:27:49;6.85;;;3.50;;
73593;SDS011;64760;53.404;23.498;2023-05-13T08:30:16;6.47;;;3.42;;
73593;SDS011;64760;53.404;23.498;2023-05-13T08:32:42;6.47;;;3.70;;
73593;SDS011;64760;53.404;23.498;2023-05-13T08:35:08;6.15;;;3.80;;
73593;SDS011;64760;53.404;23.498;2023-05-13T08:37:34;6.75;;;3.63;;
73593;SDS011;64760;53.404;23.498;2023-05-13T08:40:01;5.57;;;3.20;;
73593;SDS011;64760;53.404;23.498;2023-05-13T08:42:30;6.32;;;3.10;;
73593;SDS011;64760;53.404;23.498;2023-05-13T08:44:59;9.98;;;4.00;;
73593;SDS011;64760;53.404;23.498;2023-05-13T08:50:10;6.50;;;3.15;;
73593;SDS011;64760;53.404;23.498;2023-05-13T08:52:37;7.88;;;3.20;;
73593;SDS011;64760;53.404;23.498;2023-05-13T08:55:04;6.60;;;4.20;;
73593;SDS011;64760;53.404;23.498;2023-05-13T08:57:33;5.50;;;3.30;;
73593;SDS011;64760;53.404;23.498;2023-05-13T09:00:00;5.97;;;4.13;;
73593;SDS011;64760;53.404;23.498;2023-05-13T09:02:26;4.63;;;2.80;;
73593;SDS011;64760;53.404;23.498;2023-05-13T09:04:53;5.32;;;3.20;;
73593;SDS011;64760;53.404;23.498;2023-05-13T09:07:20;6.47;;;3.60;;
73593;SDS011;64760;53.404;23.498;2023-05-13T09:09:48;5.35;;;3.20;;
73593;SDS011;64760;53.404;23.498;2023-05-13T09:15:18;4.75;;;3.00;;
73593;SDS011;64760;53.404;23.498;2023-05-13T09:17:49;6.70;;;2.85;;
73593;SDS011;64760;53.404;23.498;2023-05-13T09:20:19;4.75;;;2.92;;
73593;SDS011;64760;53.404;23.498;2023-05-13T09:25:22;8.13;;;3.63;;
73593;SDS011;64760;53.404;23.498;2023-05-13T09:27:59;6.78;;;3.63;;
73593;SDS011;64760;53.404;23.498;2023-05-13T09:30:37;6.78;;;3.38;;
73593;SDS011;64760;53.404;23.498;2023-05-13T09:33:09;9.07;;;3.90;;
73593;SDS011;64760;53.404;23.498;2023-05-13T09:35:37;7.75;;;3.88;;
73593;SDS011;64760;53.404;23.498;2023-05-13T09:40:51;6.18;;;3.40;;
73593;SDS011;64760;53.404;23.498;2023-05-13T09:43:21;9.52;;;3.80;;
73593;SDS011;64760;53.404;23.498;2023-05-13T09:45:53;7.90;;;3.42;;
73593;SDS011;64760;53.404;23.498;2023-05-13T09:48:26;6.63;;;2.97;;
73593;SDS011;64760;53.404;23.498;2023-05-13T09:50:54;6.85;;;3.60;;
73593;SDS011;64760;53.404;23.498;2023-05-13T09:53:23;6.78;;;3.47;;
73593;SDS011;64760;53.404;23.498;2023-05-13T09:55:51;5.10;;;3.00;;
73593;SDS011;64760;53.404;23.498;2023-05-13T09:58:20;6.28;;;3.38;;
73593;SDS011;64760;53.404;23.498;2023-05-13T10:00:49;6.10;;;3.88;;
73593;SDS011;64760;53.404;23.498;2023-05-13T10:05:44;6.25;;;3.10;;
73593;SDS011;64760;53.404;23.498;2023-05-13T10:08:11;7.00;;;3.22;;
73593;SDS011;64760;53.404;23.498;2023-05-13T10:10:39;6.40;;;3.40;;
73593;SDS011;64760;53.404;23.498;2023-05-13T10:15:55;4.63;;;3.22;;
73593;SDS011;64760;53.404;23.498;2023-05-13T10:18:22;7.65;;;3.60;;
73593;SDS011;64760;53.404;23.498;2023-05-13T10:27:12;5.90;;;3.40;;
73593;SDS011;64760;53.404;23.498;2023-05-13T10:29:45;6.95;;;3.33;;
73593;SDS011;64760;53.404;23.498;2023-05-13T10:32:11;6.38;;;3.53;;
73593;SDS011;64760;53.404;23.498;2023-05-13T10:34:39;7.03;;;3.40;;
73593;SDS011;64760;53.404;23.498;2023-05-13T10:40:03;6.63;;;3.35;;
73593;SDS011;64760;53.404;23.498;2023-05-13T10:45:08;6.47;;;3.55;;
73593;SDS011;64760;53.404;23.498;2023-05-13T10:47:35;4.82;;;3.08;;
73593;SDS011;64760;53.404;23.498;2023-05-13T10:50:07;4.90;;;3.55;;
73593;SDS011;64760;53.404;23.498;2023-05-13T10:52:48;8.65;;;3.92;;
73593;SDS011;64760;53.404;23.498;2023-05-13T10:55:18;4.75;;;2.88;;
73593;SDS011;64760;53.404;23.498;2023-05-13T11:00:36;5.32;;;3.30;;
73593;SDS011;64760;53.404;23.498;2023-05-13T11:03:13;5.15;;;3.50;;
73593;SDS011;64760;53.404;23.498;2023-05-13T11:05:44;6.10;;;3.33;;
73593;SDS011;64760;53.404;23.498;2023-05-13T11:08:37;6.28;;;3.42;;
73593;SDS011;64760;53.404;23.498;2023-05-13T11:13:48;8.18;;;3.42;;
73593;SDS011;64760;53.404;23.498;2023-05-13T11:16:15;6.63;;;3.72;;
73593;SDS011;64760;53.404;23.498;2023-05-13T11:18:41;6.45;;;3.70;;
73593;SDS011;64760;53.404;23.498;2023-05-13T11:21:08;8.15;;;3.53;;
73593;SDS011;64760;53.404;23.498;2023-05-13T11:23:50;7.97;;;3.42;;
73593;SDS011;64760;53.404;23.498;2023-05-13T11:26:17;6.30;;;3.58;;
73593;SDS011;64760;53.404;23.498;2023-05-13T11:29:03;5.80;;;3.47;;
73593;SDS011;64760;53.404;23.498;2023-05-13T11:31:41;9.70;;;4.00;;
73593;SDS011;64760;53.404;23.498;2023-05-13T11:34:13;5.32;;;3.70;;
73593;SDS011;64760;53.404;23.498;2023-05-13T11:36:43;5.72;;;3.90;;
73593;SDS011;64760;53.404;23.498;2023-05-13T11:39:20;11.05;;;3.67;;
73593;SDS011;64760;53.404;23.498;2023-05-13T11:41:48;10.77;;;4.03;;
73593;SDS011;64760;53.404;23.498;2023-05-13T11:44:19;11.30;;;3.67;;
73593;SDS011;64760;53.404;23.498;2023-05-13T11:46:56;5.10;;;3.13;;
73593;SDS011;64760;53.404;23.498;2023-05-13T11:54:42;7.00;;;3.33;;
73593;SDS011;64760;53.404;23.498;2023-05-13T11:59:52;6.13;;;3.75;;
73593;SDS011;64760;53.404;23.498;2023-05-13T12:02:20;7.13;;;3.65;;
73593;SDS011;64760;53.404;23.498;2023-05-13T12:04:47;8.07;;;3.80;;
73593;SDS011;64760;53.404;23.498;2023-05-13T12:07:18;5.63;;;3.20;;
73593;SDS011;64760;53.404;23.498;2023-05-13T12:09:46;4.15;;;3.10;;
73593;SDS011;64760;53.404;23.498;2023-05-13T12:12:14;7.32;;;3.25;;
73593;SDS011;64760;53.404;23.498;2023-05-13T12:14:42;8.43;;;3.17;;
73593;SDS011;64760;53.404;23.498;2023-05-13T12:17:15;8.52;;;3.47;;
73593;SDS011;64760;53.404;23.498;2023-05-13T12:22:36;5.82;;;3.35;;
73593;SDS011;64760;53.404;23.498;2023-05-13T12:28:14;9.07;;;4.78;;
73593;SDS011;64760;53.404;23.498;2023-05-13T12:30:43;6.38;;;3.67;;
73593;SDS011;64760;53.404;23.498;2023-05-13T12:35:54;10.18;;;3.60;;
73593;SDS011;64760;53.404;23.498;2023-05-13T12:38:53;6.22;;;3.40;;
73593;SDS011;64760;53.404;23.498;2023-05-13T12:41:22;6.93;;;4.00;;
73593;SDS011;64760;53.404;23.498;2023-05-13T12:43:55;8.23;;;4.00;;
73593;SDS011;64760;53.404;23.498;2023-05-13T12:46:25;19.95;;;3.50;;
73593;SDS011;64760;53.404;23.498;2023-05-13T12:48:59;9.43;;;3.53;;
73593;SDS011;64760;53.404;23.498;2023-05-13T12:51:26;9.77;;;4.50;;
73593;SDS011;64760;53.404;23.498;2023-05-13T12:53:54;6.03;;;3.70;;
73593;SDS011;64760;53.404;23.498;2023-05-13T13:03:02;7.28;;;3.40;;
73593;SDS011;64760;53.404;23.498;2023-05-13T13:05:29;5.07;;;3.22;;
73593;SDS011;64760;53.404;23.498;2023-05-13T13:07:58;6.47;;;3.28;;
73593;SDS011;64760;53.404;23.498;2023-05-13T13:12:57;7.18;;;3.50;;
73593;SDS011;64760;53.404;23.498;2023-05-13T13:15:24;7.10;;;3.28;;
73593;SDS011;64760;53.404;23.498;2023-05-13T13:17:50;7.18;;;3.70;;
73593;SDS011;64760;53.404;23.498;2023-05-13T13:20:16;7.20;;;3.35;;
73593;SDS011;64760;53.404;23.498;2023-05-13T13:22:43;10.30;;;3.85;;
73593;SDS011;64760;53.404;23.498;2023-05-13T13:25:09;6.00;;;4.00;;
73593;SDS011;64760;53.404;23.498;2023-05-13T13:27:36;8.63;;;3.63;;
73593;SDS011;64760;53.404;23.498;2023-05-13T13:32:31;7.18;;;3.08;;
73593;SDS011;64760;53.404;23.498;2023-05-13T13:35:02;9.65;;;3.83;;
73593;SDS011;64760;53.404;23.498;2023-05-13T13:37:30;6.10;;;3.83;;
73593;SDS011;64760;53.404;23.498;2023-05-13T13:39:56;5.25;;;3.63;;
73593;SDS011;64760;53.404;23.498;2023-05-13T13:42:23;6.43;;;3.78;;
73593;SDS011;64760;53.404;23.498;2023-05-13T13:44:49;6.20;;;3.75;;
73593;SDS011;64760;53.404;23.498;2023-05-13T13:47:18;5.88;;;3.40;;
73593;SDS011;64760;53.404;23.498;2023-05-13T13:49:44;9.00;;;4.00;;
73593;SDS011;64760;53.404;23.498;2023-05-13T13:52:11;5.25;;;3.38;;
73593;SDS011;64760;53.404;23.498;2023-05-13T13:54:37;5.45;;;3.55;;
73593;SDS011;64760;53.404;23.498;2023-05-13T13:57:04;6.70;;;3.85;;
73593;SDS011;64760;53.404;23.498;2023-05-13T13:59:30;7.22;;;3.63;;
73593;SDS011;64760;53.404;23.498;2023-05-13T14:01:56;6.53;;;3.70;;
73593;SDS011;64760;53.404;23.498;2023-05-13T14:04:23;5.70;;;3.40;;
73593;SDS011;64760;53.404;23.498;2023-05-13T14:06:53;6.72;;;3.75;;
73593;SDS011;64760;53.404;23.498;2023-05-13T14:09:22;6.05;;;3.38;;
73593;SDS011;64760;53.404;23.498;2023-05-13T14:11:48;6.72;;;3.97;;
73593;SDS011;64760;53.404;23.498;2023-05-13T14:14:14;5.18;;;3.60;;
73593;SDS011;64760;53.404;23.498;2023-05-13T14:16:41;5.82;;;3.75;;
73593;SDS011;64760;53.404;23.498;2023-05-13T14:19:09;5.88;;;3.33;;
73593;SDS011;64760;53.404;23.498;2023-05-13T14:21:36;11.57;;;3.60;;
73593;SDS011;64760;53.404;23.498;2023-05-13T14:24:02;8.88;;;3.72;;
73593;SDS011;64760;53.404;23.498;2023-05-13T14:26:29;6.43;;;3.53;;
73593;SDS011;64760;53.404;23.498;2023-05-13T14:28:56;7.50;;;4.55;;
73593;SDS011;64760;53.404;23.498;2023-05-13T14:31:23;21.90;;;10.05;;
73593;SDS011;64760;53.404;23.498;2023-05-13T14:33:49;10.10;;;5.43;;
73593;SDS011;64760;53.404;23.498;2023-05-13T14:38:42;8.68;;;4.82;;
73593;SDS011;64760;53.404;23.498;2023-05-13T14:41:09;8.40;;;4.05;;
73593;SDS011;64760;53.404;23.498;2023-05-13T14:43:36;9.77;;;3.90;;
73593;SDS011;64760;53.404;23.498;2023-05-13T14:46:02;7.90;;;3.58;;
73593;SDS011;64760;53.404;23.498;2023-05-13T14:48:29;6.82;;;3.67;;
73593;SDS011;64760;53.404;23.498;2023-05-13T14:50:55;9.85;;;3.72;;
73593;SDS011;64760;53.404;23.498;2023-05-13T14:53:21;7.07;;;3.75;;
73593;SDS011;64760;53.404;23.498;2023-05-13T14:55:48;10.00;;;3.88;;
73593;SDS011;64760;53.404;23.498;2023-05-13T14:58:15;8.02;;;3.85;;
73593;SDS011;64760;53.404;23.498;2023-05-13T15:00:41;5.55;;;3.65;;
73593;SDS011;64760;53.404;23.498;2023-05-13T15:05:34;8.30;;;3.45;;
73593;SDS011;64760;53.404;23.498;2023-05-13T15:08:00;5.38;;;3.33;;
73593;SDS011;64760;53.404;23.498;2023-05-13T15:10:27;5.38;;;3.45;;
73593;SDS011;64760;53.404;23.498;2023-05-13T15:15:21;8.32;;;3.15;;
73593;SDS011;64760;53.404;23.498;2023-05-13T15:17:47;5.28;;;3.55;;
73593;SDS011;64760;53.404;23.498;2023-05-13T15:20:14;5.75;;;3.35;;
73593;SDS011;64760;53.404;23.498;2023-05-13T15:22:40;7.53;;;3.63;;
73593;SDS011;64760;53.404;23.498;2023-05-13T15:25:07;6.60;;;3.17;;
73593;SDS011;64760;53.404;23.498;2023-05-13T15:30:01;8.63;;;3.35;;
73593;SDS011;64760;53.404;23.498;2023-05-13T15:32:28;5.97;;;3.40;;
73593;SDS011;64760;53.404;23.498;2023-05-13T15:34:55;6.63;;;3.30;;
73593;SDS011;64760;53.404;23.498;2023-05-13T15:37:21;8.57;;;3.75;;
73593;SDS011;64760;53.404;23.498;2023-05-13T15:39:47;6.07;;;3.45;;
73593;SDS011;64760;53.404;23.498;2023-05-13T15:42:13;8.23;;;4.60;;
73593;SDS011;64760;53.404;23.498;2023-05-13T15:44:40;11.63;;;7.03;;
73593;SDS011;64760;53.404;23.498;2023-05-13T15:47:06;5.80;;;3.58;;
73593;SDS011;64760;53.404;23.498;2023-05-13T15:51:59;6.75;;;3.72;;
73593;SDS011;64760;53.404;23.498;2023-05-13T15:54:26;7.05;;;3.90;;
73593;SDS011;64760;53.404;23.498;2023-05-13T15:56:52;5.47;;;3.63;;
73593;SDS011;64760;53.404;23.498;2023-05-13T15:59:20;6.82;;;3.95;;
73593;SDS011;64760;53.404;23.498;2023-05-13T16:01:47;5.75;;;3.75;;
73593;SDS011;64760;53.404;23.498;2023-05-13T16:04:14;5.20;;;3.10;;
73593;SDS011;64760;53.404;23.498;2023-05-13T16:06:40;5.25;;;3.30;;
73593;SDS011;64760;53.404;23.498;2023-05-13T16:09:07;5.47;;;3.20;;
73593;SDS011;64760;53.404;23.498;2023-05-13T16:11:34;7.30;;;3.92;;